sensor_id;sensor_type;location;lat;lon;timestamp;temperature;humidity
20833;DHT22;56075;51.264;7.150;2022-09-09T00:09:54;15.80;99.90
20833;DHT22;56075;51.264;7.150;2022-09-09T00:12:53;15.80;99.90
20833;DHT22;56075;51.264;7.150;2022-09-09T00:15:42;15.90;99.90
20833;DHT22;56075;51.264;7.150;2022-09-09T00:21:13;15.80;99.90
20833;DHT22;56075;51.264;7.150;2022-09-09T00:23:53;15.80;99.90
20833;DHT22;56075;51.264;7.150;2022-09-09T00:29:36;15.70;99.90
20833;DHT22;56075;51.264;7.150;2022-09-09T00:32:14;15.80;99.90
20833;DHT22;56075;51.264;7.150;2022-09-09T00:34:58;15.60;99.90
20833;DHT22;56075;51.264;7.150;2022-09-09T00:37:31;16.40;99.90
20833;DHT22;56075;51.264;7.150;2022-09-09T00:40:17;17.70;99.90
20833;DHT22;56075;51.264;7.150;2022-09-09T00:42:55;15.70;99.90
20833;DHT22;56075;51.264;7.150;2022-09-09T00:45:37;15.40;99.90
20833;DHT22;56075;51.264;7.150;2022-09-09T00:48:12;15.50;99.90
20833;DHT22;56075;51.264;7.150;2022-09-09T00:51:17;15.70;99.90
20833;DHT22;56075;51.264;7.150;2022-09-09T01:00:25;15.50;99.90
20833;DHT22;56075;51.264;7.150;2022-09-09T01:06:29;14.60;99.90
20833;DHT22;56075;51.264;7.150;2022-09-09T01:09:27;15.60;99.90
20833;DHT22;56075;51.264;7.150;2022-09-09T01:12:29;15.70;99.90
20833;DHT22;56075;51.264;7.150;2022-09-09T01:20:26;15.80;99.90
20833;DHT22;56075;51.264;7.150;2022-09-09T01:29:08;16.00;99.90
20833;DHT22;56075;51.264;7.150;2022-09-09T01:31:56;16.80;99.90
20833;DHT22;56075;51.264;7.150;2022-09-09T01:34:35;16.00;99.90
20833;DHT22;56075;51.264;7.150;2022-09-09T01:37:08;16.00;99.90
20833;DHT22;56075;51.264;7.150;2022-09-09T01:39:43;15.70;99.90
20833;DHT22;56075;51.264;7.150;2022-09-09T01:42:17;16.00;99.90
20833;DHT22;56075;51.264;7.150;2022-09-09T01:44:49;16.70;99.90
20833;DHT22;56075;51.264;7.150;2022-09-09T01:47:21;15.90;99.90
20833;DHT22;56075;51.264;7.150;2022-09-09T01:50:12;16.50;99.90
20833;DHT22;56075;51.264;7.150;2022-09-09T01:52:49;15.70;99.90
20833;DHT22;56075;51.264;7.150;2022-09-09T01:55:30;15.90;99.90
20833;DHT22;56075;51.264;7.150;2022-09-09T02:01:12;15.50;99.90
20833;DHT22;56075;51.264;7.150;2022-09-09T02:03:51;16.40;99.90
20833;DHT22;56075;51.264;7.150;2022-09-09T02:06:35;15.50;99.90
20833;DHT22;56075;51.264;7.150;2022-09-09T02:09:19;16.00;99.90
20833;DHT22;56075;51.264;7.150;2022-09-09T02:12:35;15.60;99.90
20833;DHT22;56075;51.264;7.150;2022-09-09T02:15:05;15.20;99.90
20833;DHT22;56075;51.264;7.150;2022-09-09T02:17:50;15.20;99.90
20833;DHT22;56075;51.264;7.150;2022-09-09T02:20:24;15.30;99.90
20833;DHT22;56075;51.264;7.150;2022-09-09T02:23:04;15.20;99.90
20833;DHT22;56075;51.264;7.150;2022-09-09T02:25:36;15.20;99.90
20833;DHT22;56075;51.264;7.150;2022-09-09T02:28:21;15.00;99.90
20833;DHT22;56075;51.264;7.150;2022-09-09T02:30:55;16.80;99.90
20833;DHT22;56075;51.264;7.150;2022-09-09T02:33:35;16.00;99.90
20833;DHT22;56075;51.264;7.150;2022-09-09T02:36:08;15.10;99.90
20833;DHT22;56075;51.264;7.150;2022-09-09T02:38:45;15.10;99.90
20833;DHT22;56075;51.264;7.150;2022-09-09T02:41:27;16.40;99.90
20833;DHT22;56075;51.264;7.150;2022-09-09T02:44:00;15.30;99.90
20833;DHT22;56075;51.264;7.150;2022-09-09T02:49:43;15.30;99.90
20833;DHT22;56075;51.264;7.150;2022-09-09T02:58:07;15.20;99.90
20833;DHT22;56075;51.264;7.150;2022-09-09T03:00:40;15.50;99.90
20833;DHT22;56075;51.264;7.150;2022-09-09T03:03:12;15.20;99.90
20833;DHT22;56075;51.264;7.150;2022-09-09T03:05:44;15.10;99.90
20833;DHT22;56075;51.264;7.150;2022-09-09T03:08:16;17.00;99.90
20833;DHT22;56075;51.264;7.150;2022-09-09T03:10:49;15.40;99.90
20833;DHT22;56075;51.264;7.150;2022-09-09T03:13:20;15.60;99.90
20833;DHT22;56075;51.264;7.150;2022-09-09T03:15:52;15.50;99.90
20833;DHT22;56075;51.264;7.150;2022-09-09T03:18:25;15.00;99.90
20833;DHT22;56075;51.264;7.150;2022-09-09T03:20:58;15.00;99.90
20833;DHT22;56075;51.264;7.150;2022-09-09T03:23:30;15.60;99.90
20833;DHT22;56075;51.264;7.150;2022-09-09T03:26:07;14.80;99.90
20833;DHT22;56075;51.264;7.150;2022-09-09T03:28:45;14.80;99.90
20833;DHT22;56075;51.264;7.150;2022-09-09T03:31:18;16.10;99.90
20833;DHT22;56075;51.264;7.150;2022-09-09T03:33:50;15.00;99.90
20833;DHT22;56075;51.264;7.150;2022-09-09T03:36:25;15.00;99.90
20833;DHT22;56075;51.264;7.150;2022-09-09T03:38:57;14.90;99.90
20833;DHT22;56075;51.264;7.150;2022-09-09T03:41:31;16.00;99.90
20833;DHT22;56075;51.264;7.150;2022-09-09T03:44:04;15.10;99.90
20833;DHT22;56075;51.264;7.150;2022-09-09T03:46:40;14.80;99.90
20833;DHT22;56075;51.264;7.150;2022-09-09T03:49:12;14.90;99.90
20833;DHT22;56075;51.264;7.150;2022-09-09T03:51:43;14.80;99.90
20833;DHT22;56075;51.264;7.150;2022-09-09T03:54:17;16.80;99.90
20833;DHT22;56075;51.264;7.150;2022-09-09T03:56:48;15.80;99.90
20833;DHT22;56075;51.264;7.150;2022-09-09T03:59:19;15.00;99.90
20833;DHT22;56075;51.264;7.150;2022-09-09T04:01:52;15.10;99.90
20833;DHT22;56075;51.264;7.150;2022-09-09T04:04:24;15.00;99.90
20833;DHT22;56075;51.264;7.150;2022-09-09T04:06:57;15.00;99.90
20833;DHT22;56075;51.264;7.150;2022-09-09T04:09:28;15.10;99.90
20833;DHT22;56075;51.264;7.150;2022-09-09T04:11:59;16.70;99.90
20833;DHT22;56075;51.264;7.150;2022-09-09T04:14:31;16.70;99.90
20833;DHT22;56075;51.264;7.150;2022-09-09T04:17:02;15.00;99.90
20833;DHT22;56075;51.264;7.150;2022-09-09T04:19:37;15.30;99.90
20833;DHT22;56075;51.264;7.150;2022-09-09T04:22:09;15.10;99.90
20833;DHT22;56075;51.264;7.150;2022-09-09T04:24:40;15.10;99.90
20833;DHT22;56075;51.264;7.150;2022-09-09T04:27:12;15.00;99.90
20833;DHT22;56075;51.264;7.150;2022-09-09T04:29:43;16.00;99.90
20833;DHT22;56075;51.264;7.150;2022-09-09T04:32:14;14.80;99.90
20833;DHT22;56075;51.264;7.150;2022-09-09T04:34:46;15.10;99.90
20833;DHT22;56075;51.264;7.150;2022-09-09T04:37:19;15.20;99.90
20833;DHT22;56075;51.264;7.150;2022-09-09T04:39:50;16.50;99.90
20833;DHT22;56075;51.264;7.150;2022-09-09T04:42:22;16.50;99.90
20833;DHT22;56075;51.264;7.150;2022-09-09T04:44:53;15.10;99.90
20833;DHT22;56075;51.264;7.150;2022-09-09T04:47:25;15.10;99.90
20833;DHT22;56075;51.264;7.150;2022-09-09T04:49:58;15.00;99.90
20833;DHT22;56075;51.264;7.150;2022-09-09T04:52:30;15.90;99.90
20833;DHT22;56075;51.264;7.150;2022-09-09T04:55:02;16.60;99.90
20833;DHT22;56075;51.264;7.150;2022-09-09T04:57:34;15.30;99.90
20833;DHT22;56075;51.264;7.150;2022-09-09T05:00:06;15.30;99.90
20833;DHT22;56075;51.264;7.150;2022-09-09T05:02:41;15.20;99.90
20833;DHT22;56075;51.264;7.150;2022-09-09T05:05:13;15.00;99.90
20833;DHT22;56075;51.264;7.150;2022-09-09T05:07:46;15.20;99.90
20833;DHT22;56075;51.264;7.150;2022-09-09T05:10:19;17.20;99.90
20833;DHT22;56075;51.264;7.150;2022-09-09T05:12:52;16.40;99.90
20833;DHT22;56075;51.264;7.150;2022-09-09T05:15:24;16.60;99.90
20833;DHT22;56075;51.264;7.150;2022-09-09T05:18:00;15.90;99.90
20833;DHT22;56075;51.264;7.150;2022-09-09T05:20:35;15.10;99.90
20833;DHT22;56075;51.264;7.150;2022-09-09T05:23:08;15.30;99.90
20833;DHT22;56075;51.264;7.150;2022-09-09T05:25:40;15.30;99.90
20833;DHT22;56075;51.264;7.150;2022-09-09T05:28:13;16.90;99.90
20833;DHT22;56075;51.264;7.150;2022-09-09T05:30:45;15.20;99.90
20833;DHT22;56075;51.264;7.150;2022-09-09T05:33:16;16.90;99.90
20833;DHT22;56075;51.264;7.150;2022-09-09T05:35:48;15.20;99.90
20833;DHT22;56075;51.264;7.150;2022-09-09T05:38:25;15.20;99.90
20833;DHT22;56075;51.264;7.150;2022-09-09T05:40:57;15.30;99.90
20833;DHT22;56075;51.264;7.150;2022-09-09T05:43:29;15.20;99.90
20833;DHT22;56075;51.264;7.150;2022-09-09T05:46:09;15.40;99.90
20833;DHT22;56075;51.264;7.150;2022-09-09T05:48:42;15.60;99.90
20833;DHT22;56075;51.264;7.150;2022-09-09T05:51:16;15.30;99.90
20833;DHT22;56075;51.264;7.150;2022-09-09T05:53:48;15.20;99.90
20833;DHT22;56075;51.264;7.150;2022-09-09T05:56:21;15.40;99.90
20833;DHT22;56075;51.264;7.150;2022-09-09T05:58:54;15.00;99.90
20833;DHT22;56075;51.264;7.150;2022-09-09T06:01:27;15.70;99.90
20833;DHT22;56075;51.264;7.150;2022-09-09T06:03:59;17.30;99.90
20833;DHT22;56075;51.264;7.150;2022-09-09T06:06:36;15.50;99.90
20833;DHT22;56075;51.264;7.150;2022-09-09T06:09:09;15.40;99.90
20833;DHT22;56075;51.264;7.150;2022-09-09T06:11:43;16.70;99.90
20833;DHT22;56075;51.264;7.150;2022-09-09T06:14:15;15.30;99.90
20833;DHT22;56075;51.264;7.150;2022-09-09T06:16:51;16.30;99.90
20833;DHT22;56075;51.264;7.150;2022-09-09T06:19:26;15.40;99.90
20833;DHT22;56075;51.264;7.150;2022-09-09T06:22:00;15.30;99.90
20833;DHT22;56075;51.264;7.150;2022-09-09T06:24:36;15.40;99.90
20833;DHT22;56075;51.264;7.150;2022-09-09T06:27:08;16.00;99.90
20833;DHT22;56075;51.264;7.150;2022-09-09T06:29:41;16.70;99.90
20833;DHT22;56075;51.264;7.150;2022-09-09T06:32:12;15.60;99.90
20833;DHT22;56075;51.264;7.150;2022-09-09T06:34:43;15.60;99.90
20833;DHT22;56075;51.264;7.150;2022-09-09T06:37:16;15.60;99.90
20833;DHT22;56075;51.264;7.150;2022-09-09T06:39:52;15.60;99.90
20833;DHT22;56075;51.264;7.150;2022-09-09T06:42:23;15.60;99.90
20833;DHT22;56075;51.264;7.150;2022-09-09T06:44:54;16.10;99.90
20833;DHT22;56075;51.264;7.150;2022-09-09T06:47:33;15.50;99.90
20833;DHT22;56075;51.264;7.150;2022-09-09T06:50:05;15.80;99.90
20833;DHT22;56075;51.264;7.150;2022-09-09T06:52:39;15.60;99.90
20833;DHT22;56075;51.264;7.150;2022-09-09T06:55:13;17.00;99.90
20833;DHT22;56075;51.264;7.150;2022-09-09T06:57:47;15.50;99.90
20833;DHT22;56075;51.264;7.150;2022-09-09T07:00:23;15.50;99.90
20833;DHT22;56075;51.264;7.150;2022-09-09T07:02:55;15.50;99.90
20833;DHT22;56075;51.264;7.150;2022-09-09T07:05:27;15.60;99.90
20833;DHT22;56075;51.264;7.150;2022-09-09T07:07:58;15.90;99.90
20833;DHT22;56075;51.264;7.150;2022-09-09T07:10:31;15.80;99.90
20833;DHT22;56075;51.264;7.150;2022-09-09T07:13:02;16.90;99.90
20833;DHT22;56075;51.264;7.150;2022-09-09T07:15:33;16.70;99.90
20833;DHT22;56075;51.264;7.150;2022-09-09T07:18:05;15.80;99.90
20833;DHT22;56075;51.264;7.150;2022-09-09T07:20:36;16.20;99.90
20833;DHT22;56075;51.264;7.150;2022-09-09T07:23:07;16.60;99.90
20833;DHT22;56075;51.264;7.150;2022-09-09T07:25:44;18.70;99.90
20833;DHT22;56075;51.264;7.150;2022-09-09T07:28:17;16.00;99.90
20833;DHT22;56075;51.264;7.150;2022-09-09T07:30:59;16.20;99.90
20833;DHT22;56075;51.264;7.150;2022-09-09T07:33:35;16.60;99.90
20833;DHT22;56075;51.264;7.150;2022-09-09T07:36:09;16.90;99.90
20833;DHT22;56075;51.264;7.150;2022-09-09T07:38:48;16.90;99.90
20833;DHT22;56075;51.264;7.150;2022-09-09T07:41:26;16.90;99.90
20833;DHT22;56075;51.264;7.150;2022-09-09T07:43:57;17.00;99.90
20833;DHT22;56075;51.264;7.150;2022-09-09T07:46:30;18.00;99.90
20833;DHT22;56075;51.264;7.150;2022-09-09T07:49:01;17.30;99.90
20833;DHT22;56075;51.264;7.150;2022-09-09T07:51:38;17.00;99.90
20833;DHT22;56075;51.264;7.150;2022-09-09T07:54:12;16.90;99.90
20833;DHT22;56075;51.264;7.150;2022-09-09T07:56:46;18.40;99.90
20833;DHT22;56075;51.264;7.150;2022-09-09T07:59:18;17.20;99.90
20833;DHT22;56075;51.264;7.150;2022-09-09T08:01:52;18.60;99.90
20833;DHT22;56075;51.264;7.150;2022-09-09T08:04:27;17.50;99.90
20833;DHT22;56075;51.264;7.150;2022-09-09T08:07:00;17.00;99.90
20833;DHT22;56075;51.264;7.150;2022-09-09T08:09:34;17.20;99.90
20833;DHT22;56075;51.264;7.150;2022-09-09T08:12:21;18.40;99.90
20833;DHT22;56075;51.264;7.150;2022-09-09T08:14:53;17.00;99.90
20833;DHT22;56075;51.264;7.150;2022-09-09T08:17:26;17.80;99.90
20833;DHT22;56075;51.264;7.150;2022-09-09T08:19:57;18.60;99.90
20833;DHT22;56075;51.264;7.150;2022-09-09T08:22:33;18.10;99.90
20833;DHT22;56075;51.264;7.150;2022-09-09T08:25:05;19.40;99.90
20833;DHT22;56075;51.264;7.150;2022-09-09T08:27:38;17.20;99.90
20833;DHT22;56075;51.264;7.150;2022-09-09T08:30:10;17.20;99.90
20833;DHT22;56075;51.264;7.150;2022-09-09T08:32:41;17.30;99.90
20833;DHT22;56075;51.264;7.150;2022-09-09T08:35:12;17.40;99.90
20833;DHT22;56075;51.264;7.150;2022-09-09T08:37:44;17.50;99.90
20833;DHT22;56075;51.264;7.150;2022-09-09T08:40:22;17.70;99.90
20833;DHT22;56075;51.264;7.150;2022-09-09T08:42:59;17.70;99.90
20833;DHT22;56075;51.264;7.150;2022-09-09T08:48:56;17.70;99.90
20833;DHT22;56075;51.264;7.150;2022-09-09T08:51:31;18.10;99.90
20833;DHT22;56075;51.264;7.150;2022-09-09T08:54:04;18.10;99.90
20833;DHT22;56075;51.264;7.150;2022-09-09T08:56:37;18.20;99.90
20833;DHT22;56075;51.264;7.150;2022-09-09T08:59:11;18.20;99.90
20833;DHT22;56075;51.264;7.150;2022-09-09T09:02:00;19.80;99.90
20833;DHT22;56075;51.264;7.150;2022-09-09T09:07:51;18.40;99.90
20833;DHT22;56075;51.264;7.150;2022-09-09T09:10:50;18.50;99.90
20833;DHT22;56075;51.264;7.150;2022-09-09T09:13:45;18.50;99.90
20833;DHT22;56075;51.264;7.150;2022-09-09T09:16:34;18.40;99.90
20833;DHT22;56075;51.264;7.150;2022-09-09T09:19:13;18.60;99.90
20833;DHT22;56075;51.264;7.150;2022-09-09T09:21:57;18.90;99.90
20833;DHT22;56075;51.264;7.150;2022-09-09T09:24:48;19.30;99.90
20833;DHT22;56075;51.264;7.150;2022-09-09T09:27:35;18.30;99.90
20833;DHT22;56075;51.264;7.150;2022-09-09T09:30:17;19.90;99.90
20833;DHT22;56075;51.264;7.150;2022-09-09T09:33:03;17.50;99.90
20833;DHT22;56075;51.264;7.150;2022-09-09T09:35:37;17.30;99.90
20833;DHT22;56075;51.264;7.150;2022-09-09T09:38:25;17.30;99.90
20833;DHT22;56075;51.264;7.150;2022-09-09T09:41:01;17.70;99.90
20833;DHT22;56075;51.264;7.150;2022-09-09T09:43:36;17.90;99.90
20833;DHT22;56075;51.264;7.150;2022-09-09T09:46:23;18.00;99.90
20833;DHT22;56075;51.264;7.150;2022-09-09T09:49:05;18.10;99.90
20833;DHT22;56075;51.264;7.150;2022-09-09T09:51:37;18.20;99.90
20833;DHT22;56075;51.264;7.150;2022-09-09T09:57:14;18.40;99.90
20833;DHT22;56075;51.264;7.150;2022-09-09T09:59:48;18.40;99.90
20833;DHT22;56075;51.264;7.150;2022-09-09T10:02:25;18.10;99.90
20833;DHT22;56075;51.264;7.150;2022-09-09T10:05:16;18.70;99.90
20833;DHT22;56075;51.264;7.150;2022-09-09T10:17:14;18.70;99.90
20833;DHT22;56075;51.264;7.150;2022-09-09T10:22:47;19.90;99.90
20833;DHT22;56075;51.264;7.150;2022-09-09T10:25:44;18.80;99.90
20833;DHT22;56075;51.264;7.150;2022-09-09T10:28:33;19.10;99.90
20833;DHT22;56075;51.264;7.150;2022-09-09T10:31:18;20.50;99.90
20833;DHT22;56075;51.264;7.150;2022-09-09T10:36:47;19.50;99.90
20833;DHT22;56075;51.264;7.150;2022-09-09T10:39:35;19.60;99.90
20833;DHT22;56075;51.264;7.150;2022-09-09T10:42:14;19.40;99.90
20833;DHT22;56075;51.264;7.150;2022-09-09T10:47:38;19.50;99.90
20833;DHT22;56075;51.264;7.150;2022-09-09T10:53:08;19.60;99.90
20833;DHT22;56075;51.264;7.150;2022-09-09T10:56:02;19.80;99.90
20833;DHT22;56075;51.264;7.150;2022-09-09T10:58:40;20.10;99.90
20833;DHT22;56075;51.264;7.150;2022-09-09T11:01:23;20.60;99.90
20833;DHT22;56075;51.264;7.150;2022-09-09T11:04:00;20.10;99.90
20833;DHT22;56075;51.264;7.150;2022-09-09T11:06:39;21.10;99.90
20833;DHT22;56075;51.264;7.150;2022-09-09T11:09:19;20.60;99.90
20833;DHT22;56075;51.264;7.150;2022-09-09T11:11:57;21.70;99.90
20833;DHT22;56075;51.264;7.150;2022-09-09T11:14:34;20.40;99.90
20833;DHT22;56075;51.264;7.150;2022-09-09T11:17:22;20.40;99.90
20833;DHT22;56075;51.264;7.150;2022-09-09T11:19:54;20.30;99.90
20833;DHT22;56075;51.264;7.150;2022-09-09T11:22:36;20.80;99.90
20833;DHT22;56075;51.264;7.150;2022-09-09T11:38:53;20.50;99.90
20833;DHT22;56075;51.264;7.150;2022-09-09T11:41:34;20.60;99.90
20833;DHT22;56075;51.264;7.150;2022-09-09T11:44:27;20.60;99.90
20833;DHT22;56075;51.264;7.150;2022-09-09T11:46:59;20.70;99.90
20833;DHT22;56075;51.264;7.150;2022-09-09T11:49:41;20.40;99.90
20833;DHT22;56075;51.264;7.150;2022-09-09T11:55:29;21.90;99.90
20833;DHT22;56075;51.264;7.150;2022-09-09T11:58:05;20.10;99.90
20833;DHT22;56075;51.264;7.150;2022-09-09T12:03:46;20.50;99.90
20833;DHT22;56075;51.264;7.150;2022-09-09T12:06:27;19.40;99.90
20833;DHT22;56075;51.264;7.150;2022-09-09T12:09:22;18.80;99.90
20833;DHT22;56075;51.264;7.150;2022-09-09T12:12:43;17.80;99.90
20833;DHT22;56075;51.264;7.150;2022-09-09T12:15:25;17.50;99.90
20833;DHT22;56075;51.264;7.150;2022-09-09T12:17:59;17.50;99.90
20833;DHT22;56075;51.264;7.150;2022-09-09T12:20:36;18.20;99.90
20833;DHT22;56075;51.264;7.150;2022-09-09T12:23:30;17.70;99.90
20833;DHT22;56075;51.264;7.150;2022-09-09T12:26:20;19.00;99.90
20833;DHT22;56075;51.264;7.150;2022-09-09T12:34:40;18.10;99.90
20833;DHT22;56075;51.264;7.150;2022-09-09T12:40:20;18.30;99.90
20833;DHT22;56075;51.264;7.150;2022-09-09T12:42:52;18.10;99.90
20833;DHT22;56075;51.264;7.150;2022-09-09T12:45:25;17.80;99.90
20833;DHT22;56075;51.264;7.150;2022-09-09T12:50:37;17.30;99.90
20833;DHT22;56075;51.264;7.150;2022-09-09T12:53:31;16.60;99.90
20833;DHT22;56075;51.264;7.150;2022-09-09T12:56:06;16.80;99.90
20833;DHT22;56075;51.264;7.150;2022-09-09T12:58:39;16.70;99.90
20833;DHT22;56075;51.264;7.150;2022-09-09T13:01:31;16.50;99.90
20833;DHT22;56075;51.264;7.150;2022-09-09T13:04:20;16.50;99.90
20833;DHT22;56075;51.264;7.150;2022-09-09T13:06:53;16.50;99.90
20833;DHT22;56075;51.264;7.150;2022-09-09T13:09:24;16.80;99.90
20833;DHT22;56075;51.264;7.150;2022-09-09T13:11:56;18.70;99.90
20833;DHT22;56075;51.264;7.150;2022-09-09T13:14:32;18.50;99.90
20833;DHT22;56075;51.264;7.150;2022-09-09T13:17:06;18.50;99.90
20833;DHT22;56075;51.264;7.150;2022-09-09T13:19:38;17.20;99.90
20833;DHT22;56075;51.264;7.150;2022-09-09T13:25:18;17.50;99.90
20833;DHT22;56075;51.264;7.150;2022-09-09T13:30:30;16.60;99.90
20833;DHT22;56075;51.264;7.150;2022-09-09T13:35:51;16.20;99.90
20833;DHT22;56075;51.264;7.150;2022-09-09T13:38:24;15.70;99.90
20833;DHT22;56075;51.264;7.150;2022-09-09T13:41:07;15.70;99.90
20833;DHT22;56075;51.264;7.150;2022-09-09T13:43:46;15.90;99.90
20833;DHT22;56075;51.264;7.150;2022-09-09T13:46:39;15.80;99.90
20833;DHT22;56075;51.264;7.150;2022-09-09T13:51:43;16.10;99.90
20833;DHT22;56075;51.264;7.150;2022-09-09T13:54:19;16.00;99.90
20833;DHT22;56075;51.264;7.150;2022-09-09T13:56:50;16.20;99.90
20833;DHT22;56075;51.264;7.150;2022-09-09T13:59:22;16.30;99.90
20833;DHT22;56075;51.264;7.150;2022-09-09T14:01:55;16.60;99.90
20833;DHT22;56075;51.264;7.150;2022-09-09T14:04:26;16.50;99.90
20833;DHT22;56075;51.264;7.150;2022-09-09T14:06:57;17.00;99.90
20833;DHT22;56075;51.264;7.150;2022-09-09T14:09:29;18.40;99.90
20833;DHT22;56075;51.264;7.150;2022-09-09T14:12:00;18.40;99.90
20833;DHT22;56075;51.264;7.150;2022-09-09T14:14:32;17.90;99.90
20833;DHT22;56075;51.264;7.150;2022-09-09T14:17:03;17.70;99.90
20833;DHT22;56075;51.264;7.150;2022-09-09T14:19:35;18.00;99.90
20833;DHT22;56075;51.264;7.150;2022-09-09T14:22:06;18.50;99.90
20833;DHT22;56075;51.264;7.150;2022-09-09T14:24:37;18.00;99.90
20833;DHT22;56075;51.264;7.150;2022-09-09T14:27:08;18.00;99.90
20833;DHT22;56075;51.264;7.150;2022-09-09T14:29:39;19.70;99.90
20833;DHT22;56075;51.264;7.150;2022-09-09T14:32:11;19.50;99.90
20833;DHT22;56075;51.264;7.150;2022-09-09T14:34:42;19.50;99.90
20833;DHT22;56075;51.264;7.150;2022-09-09T14:37:13;17.70;99.90
20833;DHT22;56075;51.264;7.150;2022-09-09T14:39:44;17.80;99.90
20833;DHT22;56075;51.264;7.150;2022-09-09T14:42:17;18.90;99.90
20833;DHT22;56075;51.264;7.150;2022-09-09T14:44:49;19.00;99.90
20833;DHT22;56075;51.264;7.150;2022-09-09T14:47:20;19.30;99.90
20833;DHT22;56075;51.264;7.150;2022-09-09T14:49:52;18.20;99.90
20833;DHT22;56075;51.264;7.150;2022-09-09T14:52:23;18.40;99.90
20833;DHT22;56075;51.264;7.150;2022-09-09T14:54:54;18.30;99.90
20833;DHT22;56075;51.264;7.150;2022-09-09T14:57:25;18.80;99.90
20833;DHT22;56075;51.264;7.150;2022-09-09T14:59:56;18.00;99.90
20833;DHT22;56075;51.264;7.150;2022-09-09T15:02:28;18.20;99.90
20833;DHT22;56075;51.264;7.150;2022-09-09T15:05:00;17.60;99.90
20833;DHT22;56075;51.264;7.150;2022-09-09T15:07:33;18.70;99.90
20833;DHT22;56075;51.264;7.150;2022-09-09T15:10:05;17.50;99.90
20833;DHT22;56075;51.264;7.150;2022-09-09T15:12:37;17.50;99.90
20833;DHT22;56075;51.264;7.150;2022-09-09T15:15:09;19.30;99.90
20833;DHT22;56075;51.264;7.150;2022-09-09T15:17:40;17.40;99.90
20833;DHT22;56075;51.264;7.150;2022-09-09T15:20:12;17.20;99.90
20833;DHT22;56075;51.264;7.150;2022-09-09T15:22:43;17.20;99.90
20833;DHT22;56075;51.264;7.150;2022-09-09T15:25:14;17.60;99.90
20833;DHT22;56075;51.264;7.150;2022-09-09T15:27:45;16.50;99.90
20833;DHT22;56075;51.264;7.150;2022-09-09T15:30:17;16.10;99.90
20833;DHT22;56075;51.264;7.150;2022-09-09T15:32:48;15.80;99.90
20833;DHT22;56075;51.264;7.150;2022-09-09T15:35:19;15.50;99.90
20833;DHT22;56075;51.264;7.150;2022-09-09T15:37:50;17.30;99.90
20833;DHT22;56075;51.264;7.150;2022-09-09T15:40:21;15.60;99.90
20833;DHT22;56075;51.264;7.150;2022-09-09T15:42:52;15.30;99.90
20833;DHT22;56075;51.264;7.150;2022-09-09T15:45:23;17.00;99.90
20833;DHT22;56075;51.264;7.150;2022-09-09T15:47:55;17.10;99.90
20833;DHT22;56075;51.264;7.150;2022-09-09T15:50:26;15.40;99.90
20833;DHT22;56075;51.264;7.150;2022-09-09T15:52:58;15.40;99.90
20833;DHT22;56075;51.264;7.150;2022-09-09T15:55:29;16.80;99.90
20833;DHT22;56075;51.264;7.150;2022-09-09T15:58:01;16.90;99.90
20833;DHT22;56075;51.264;7.150;2022-09-09T16:00:32;15.90;99.90
20833;DHT22;56075;51.264;7.150;2022-09-09T16:03:05;15.90;99.90
20833;DHT22;56075;51.264;7.150;2022-09-09T16:05:36;16.00;99.90
20833;DHT22;56075;51.264;7.150;2022-09-09T16:08:07;16.30;99.90
20833;DHT22;56075;51.264;7.150;2022-09-09T16:10:38;16.50;99.90
20833;DHT22;56075;51.264;7.150;2022-09-09T16:13:10;17.10;99.90
20833;DHT22;56075;51.264;7.150;2022-09-09T16:15:41;17.70;99.90
20833;DHT22;56075;51.264;7.150;2022-09-09T16:18:13;16.20;99.90
20833;DHT22;56075;51.264;7.150;2022-09-09T16:20:53;16.60;99.90
20833;DHT22;56075;51.264;7.150;2022-09-09T16:23:25;17.10;99.90
20833;DHT22;56075;51.264;7.150;2022-09-09T16:25:56;18.20;99.90
20833;DHT22;56075;51.264;7.150;2022-09-09T16:28:28;16.60;99.90
20833;DHT22;56075;51.264;7.150;2022-09-09T16:31:04;17.60;99.90
20833;DHT22;56075;51.264;7.150;2022-09-09T16:33:36;16.00;99.90
20833;DHT22;56075;51.264;7.150;2022-09-09T16:36:09;17.80;99.90
20833;DHT22;56075;51.264;7.150;2022-09-09T16:38:41;16.20;99.90
20833;DHT22;56075;51.264;7.150;2022-09-09T16:41:14;16.30;99.90
20833;DHT22;56075;51.264;7.150;2022-09-09T16:43:45;17.50;99.90
20833;DHT22;56075;51.264;7.150;2022-09-09T16:46:18;17.70;99.90
20833;DHT22;56075;51.264;7.150;2022-09-09T16:48:50;16.30;99.90
20833;DHT22;56075;51.264;7.150;2022-09-09T16:51:28;16.40;99.90
20833;DHT22;56075;51.264;7.150;2022-09-09T16:54:02;16.40;99.90
20833;DHT22;56075;51.264;7.150;2022-09-09T16:56:38;16.20;99.90
20833;DHT22;56075;51.264;7.150;2022-09-09T16:59:14;16.20;99.90
20833;DHT22;56075;51.264;7.150;2022-09-09T17:01:48;17.40;99.90
20833;DHT22;56075;51.264;7.150;2022-09-09T17:04:24;16.20;99.90
20833;DHT22;56075;51.264;7.150;2022-09-09T17:06:56;16.10;99.90
20833;DHT22;56075;51.264;7.150;2022-09-09T17:09:28;16.10;99.90
20833;DHT22;56075;51.264;7.150;2022-09-09T17:11:59;16.40;99.90
20833;DHT22;56075;51.264;7.150;2022-09-09T17:14:33;16.40;99.90
20833;DHT22;56075;51.264;7.150;2022-09-09T17:17:04;17.40;99.90
20833;DHT22;56075;51.264;7.150;2022-09-09T17:19:35;17.10;99.90
20833;DHT22;56075;51.264;7.150;2022-09-09T17:22:06;16.70;99.90
20833;DHT22;56075;51.264;7.150;2022-09-09T17:24:37;16.20;99.90
20833;DHT22;56075;51.264;7.150;2022-09-09T17:27:09;16.80;99.90
20833;DHT22;56075;51.264;7.150;2022-09-09T17:29:40;17.40;99.90
20833;DHT22;56075;51.264;7.150;2022-09-09T17:32:11;17.10;99.90
20833;DHT22;56075;51.264;7.150;2022-09-09T17:34:43;17.70;99.90
20833;DHT22;56075;51.264;7.150;2022-09-09T17:37:14;18.80;99.90
20833;DHT22;56075;51.264;7.150;2022-09-09T17:39:45;15.80;99.90
20833;DHT22;56075;51.264;7.150;2022-09-09T17:42:16;15.90;99.90
20833;DHT22;56075;51.264;7.150;2022-09-09T17:44:47;15.70;99.90
20833;DHT22;56075;51.264;7.150;2022-09-09T17:47:18;15.90;99.90
20833;DHT22;56075;51.264;7.150;2022-09-09T17:49:49;15.60;99.90
20833;DHT22;56075;51.264;7.150;2022-09-09T17:52:20;17.10;99.90
20833;DHT22;56075;51.264;7.150;2022-09-09T17:54:51;17.20;99.90
20833;DHT22;56075;51.264;7.150;2022-09-09T17:57:27;16.20;99.90
20833;DHT22;56075;51.264;7.150;2022-09-09T17:59:58;15.70;99.90
20833;DHT22;56075;51.264;7.150;2022-09-09T18:02:30;17.20;99.90
20833;DHT22;56075;51.264;7.150;2022-09-09T18:05:01;16.10;99.90
20833;DHT22;56075;51.264;7.150;2022-09-09T18:07:33;16.20;99.90
20833;DHT22;56075;51.264;7.150;2022-09-09T18:10:04;15.30;99.90
20833;DHT22;56075;51.264;7.150;2022-09-09T18:12:35;15.50;99.90
20833;DHT22;56075;51.264;7.150;2022-09-09T18:15:06;15.20;99.90
20833;DHT22;56075;51.264;7.150;2022-09-09T18:17:37;15.30;99.90
20833;DHT22;56075;51.264;7.150;2022-09-09T18:20:09;16.50;99.90
20833;DHT22;56075;51.264;7.150;2022-09-09T18:22:41;15.20;99.90